NOAA/GLERL Met Station at Muskegon, MI

Previous 5 days (top of hour only)
See slso Previous 3 Hours (2 minute increments)
Jump down to Data
Switch to [English][Metric]
Zoom: Click and drag, Pan: shift-click and drag, Unzoom: double-click, Unzoom All





Zoom: Click and drag, Pan: shift-click and drag, Unzoom: double-click, Unzoom All

Note: Speed = mean wind during 2-minute period at top of hour,
Gust = max wind during 2-minute period at top of hour,
Peak = max wind during entire hour.
• See also 5-day windrose plot
Jump up to Graphs
Previous 5 days (top of hour only)
See slso Previous 3 Hours (2 minute increments)
                  Wind  Wind  Wind   Air   Dew   Rel     Sta   PAR
                   Spd   Gst   Dir  Temp    Pt   Hum    Pres uE/m2/
YYYY-MM-DD   EDT   kts   kts   deg     F     F     %   in Hg   sec
2015-07-30 02:00  17.1  19.1   299  73.6  65.4  75.1   29.32     2
2015-07-30 01:00  19.1  21.2   297  74.5  65.5  73.1   29.32     2
2015-07-30 00:00  17.3  19.1   285  74.7  66.0  74.1   29.31     2
2015-07-29 23:00  14.8  16.7   277  74.8  67.0  76.2   29.31     2
2015-07-29 22:00  13.4  15.2   270  74.8  67.2  76.8   29.31     2
2015-07-29 21:00  13.6  14.6   273  75.6  66.5  73.1   29.29   124
2015-07-29 20:00  13.2  14.8   262  75.9  66.3  71.8   29.29  1234
2015-07-29 19:00   9.5  11.7   257  75.2  67.5  76.7   29.29  1819
2015-07-29 18:00   9.3  10.9   256  75.6  66.9  74.1   29.29  1971
2015-07-29 17:00   8.4   9.5   261  75.9  65.0  68.5   29.30  2065
2015-07-29 16:00  10.9  12.8   286  75.9  66.0  71.0   29.31  2144
2015-07-29 15:00  13.6  14.8   289  75.2  66.6  74.2   29.32  2273
2015-07-29 14:00  11.7  12.8   284  74.1  70.4  88.0   29.33  1765
2015-07-29 13:00   6.0   8.2   303  76.6  70.8  81.9   29.32  3069
2015-07-29 12:00   7.6   9.3   333  74.8  71.4  88.7   29.32  1360
2015-07-29 11:00   3.5   4.5   313  73.4  71.5  93.8   29.31   766
2015-07-29 10:00   4.1   5.4   268  73.2  71.3  93.6   29.30   687
2015-07-29 09:00   7.4   8.0   194  74.5  71.7  91.0   29.30  1032
2015-07-29 08:00   8.6  10.7   225  73.6  71.3  92.4   29.30   332
2015-07-29 07:00  10.3  11.5   198  74.3  70.5  87.7   29.29    63
2015-07-29 06:00  10.9  11.3   187  74.3  69.6  84.9   29.29     2
2015-07-29 05:00   9.7  11.5   181  75.2  69.0  80.7   29.29     2
2015-07-29 04:00  10.1  11.5   167  77.0  68.4  74.5   29.28     2
2015-07-29 03:00  12.1  13.8   168  78.6  69.5  73.2   29.28     2
2015-07-29 02:00  12.4  14.8   174  79.0  68.7  70.4   29.32     2
2015-07-29 01:00  10.3  12.2   166  81.0  66.6  61.1   29.33     2
2015-07-29 00:00   6.2  10.3   157  80.4  66.4  61.8   29.32     2
2015-07-28 23:00   5.6   6.0   123  81.0  65.5  58.8   29.34     2
2015-07-28 22:00   6.0   6.8   164  81.9  64.2  54.4   29.32     2
2015-07-28 21:00   1.7   2.1   121  82.9  63.3  50.9   29.31    37
2015-07-28 20:00   4.1   4.3   225  81.3  68.7  65.1   29.32   364
2015-07-28 19:00   5.4   5.8   207  83.5  67.4  57.8   29.29  1791
2015-07-28 18:00   4.9   7.0   166  85.3  63.2  46.9   29.29   978
2015-07-28 17:00   2.9   3.5   214  80.6  66.7  62.1   29.34  2129
2015-07-28 16:00   4.1   5.2   221  80.8  66.6  61.4   29.36  1634
2015-07-28 15:00   6.2   7.0   235  78.3  67.6  69.2   29.37  2090
2015-07-28 14:00   5.6   6.0   237  78.8  64.8  61.6   29.40  2473
2015-07-28 13:00   2.5   3.1   246  77.7  66.9  68.9   29.41  2244
2015-07-28 12:00   4.5   4.7   222  77.5  66.6  68.6   29.42  2100
2015-07-28 11:00   3.7   4.9   190  76.5  66.9  72.0   29.40  2121
2015-07-28 10:00   2.7   3.9   171  78.4  65.8  64.7   29.41  1950
2015-07-28 09:00   4.7   5.8   167  78.3  61.9  56.7   29.42  1658
2015-07-28 08:00   5.2   6.8   112  73.2  64.0  72.5   29.41  1122
2015-07-28 07:00   7.4   9.3   116  70.7  63.6  77.8   29.39   190
2015-07-28 06:00   1.2   2.7   117  70.9  64.1  78.7   29.40     2
2015-07-28 05:00   5.8   7.0    90  71.1  65.6  82.6   29.39     2
2015-07-28 04:00   8.2   9.3    94  71.8  65.5  80.4   29.41     2
2015-07-28 03:00   7.6   8.7    88  72.5  65.4  78.0   29.41     2
2015-07-28 02:00   6.6   8.0    88  73.4  66.8  79.6   29.40     2
2015-07-28 01:00   6.8   7.6    96  74.1  66.5  76.7   29.41     2
2015-07-28 00:00   6.0   7.6    81  74.5  66.5  75.8   29.41     2
2015-07-27 23:00   6.6   7.8    85  75.6  66.4  72.7   29.41     2
2015-07-27 22:00   4.5   5.6    52  77.0  67.4  71.7   29.40     2
2015-07-27 21:00   5.2   6.0   358  76.6  68.1  74.4   29.38    74
2015-07-27 20:00   7.0   8.0   348  79.2  67.3  66.5   29.38  1107
2015-07-27 19:00   8.6  10.3   350  79.2  67.5  67.0   29.38  1111
2015-07-27 18:00  10.5  12.2   352  80.8  65.0  58.2   29.39  1408
2015-07-27 17:00   9.9  13.2   349  79.3  67.9  67.6   29.41  1739
2015-07-27 16:00   8.0  10.5   349  78.1  69.4  74.3   29.42  2108
2015-07-27 15:00   8.7   9.7   341  78.1  70.6  77.3   29.41  2299
2015-07-27 14:00   6.6   7.0   326  77.2  71.5  82.3   29.42  2246
2015-07-27 13:00   3.5   3.9   325  77.4  71.0  80.4   29.42  2194
2015-07-27 12:00   0.8   1.7   273  76.8  70.3  80.0   29.43  2023
2015-07-27 11:00   0.8   4.3   192  76.8  69.0  76.3   29.43  1662
2015-07-27 10:00   2.9   4.1    92  78.4  66.7  66.7   29.42  1813
2015-07-27 09:00   4.3   6.0    91  74.1  66.2  75.9   29.41  1402
2015-07-27 08:00   7.4   8.6   102  70.9  65.7  83.5   29.41  1202
2015-07-27 07:00   7.8   9.1    95  68.9  66.2  91.0   29.39   237
2015-07-27 06:00   6.8   7.6    95  69.8  67.0  90.8   29.39     2
2015-07-27 05:00   7.2   8.2    98  71.1  67.7  89.0   29.37     2
2015-07-27 04:00   7.6   8.2   101  70.0  67.0  90.0   29.37     2
2015-07-27 03:00   6.8   7.6    96  71.4  67.1  86.1   29.37     2
2015-07-27 02:00   6.8   8.0    94  72.3  67.2  83.8   29.36     2
2015-07-27 01:00   6.0   6.6    95  72.1  67.5  85.1   29.37     2
2015-07-27 00:00   4.1   5.1    85  72.3  66.6  81.9   29.37     2
2015-07-26 23:00   3.9   4.3    66  72.3  68.2  86.6   29.36     2
2015-07-26 22:00   0.4   1.0   334  73.2  69.7  88.4   29.35     2
2015-07-26 21:00   2.1   2.9    17  75.4  68.9  80.0   29.34   110
2015-07-26 20:00   4.3   4.9   342  75.6  69.0  79.8   29.34   252
2015-07-26 19:00   5.6   7.0     9  78.1  67.3  69.1   29.34   556
2015-07-26 18:00   8.6   9.7   348  77.7  65.4  65.3   29.34  2362
2015-07-26 17:00  10.9  13.0   352  77.2  67.0  70.4   29.35  1744
2015-07-26 16:00   9.9  12.1   347  75.9  67.2  74.0   29.36  1830
2015-07-26 15:00   8.9  10.3   339  76.3  68.2  75.8   29.36  2307
2015-07-26 14:00   7.4   8.0   334  75.6  66.9  74.1   29.36  2401
2015-07-26 13:00   4.9   5.1   325  73.9  66.8  78.0   29.37  1877
2015-07-26 12:00   4.1   4.9   277  72.9  65.5  77.5   29.38  2103
2015-07-26 11:00   3.3   5.1   107  78.8  64.1  60.2   29.36  2147
2015-07-26 10:00   3.3   5.2    92  75.4  63.0  65.0   29.37  1997
2015-07-26 09:00   6.0   8.0    83  71.2  60.2  67.6   29.36  1721
2015-07-26 08:00   7.8   9.9    85  68.2  61.2  78.2   29.35  1263
2015-07-26 07:00   5.2   6.4    91  65.5  61.3  86.3   29.35   301
2015-07-26 06:00   4.7   5.8    63  64.9  61.2  87.4   29.34     2
2015-07-26 05:00   2.7   3.9    68  64.9  60.2  84.4   29.32     2
2015-07-26 04:00   4.9   5.4    68  66.4  59.2  77.5   29.33     2
2015-07-26 03:00   4.9   5.8    81  68.7  61.1  76.2   29.32     2
2015-07-26 02:00   7.4   8.2    67  69.1  59.8  72.0   29.32     2
2015-07-26 01:00   7.4   8.6    78  70.0  61.2  73.4   29.32     2
2015-07-26 00:00   8.2   9.3    53  72.5  60.4  65.2   29.33     2
2015-07-25 23:00   8.4  12.2    43  74.7  60.7  61.2   29.32     2
2015-07-25 22:00   7.2   8.7    11  73.6  62.8  68.5   29.32     2
2015-07-25 21:00   7.2   8.9   359  73.0  68.0  83.9   29.31   129
2015-07-25 20:00   8.6   9.9   352  73.6  66.9  79.4   29.29  1183